Lake City, CO

3:58 PM MDT on August 29, 2015 (GMT -0600)
Lake City Heights | | Change Station
CLOSE
Current Station
Personal Weather Station
Location: Lake City, CO
Elevation: 8858 ft
Nearby Weather Stations

Elev 8858 ft 38.02 °N, 107.31 °W | Updated 11 seconds ago

Partly Cloudy
Partly Cloudy
74.5 °F
Feels Like 75 °F
N
2.7
Wind Variable Wind from NE
Gusts 2.7 mph

Today
High -- | Low -- °F
--% Chance of Precip.
Yesterday
High -- | Low -- °F
Precip. -- in
6:36 AM 7:43 PM
Full, 100% visible
Pressure 30.50 in
Visibility 10.0 miles
Clouds Scattered Clouds 12000 ft
Heat Index 75 °F
Dew Point 25 °F
Humidity 16%
Rainfall 0.00 in
Snow Depth Not available.
UV 6 out of 12
Pollen 10.40 out of 12
Air Quality Not available.
Flu Activity Not available.
METAR KTEX 292155Z AUTO 16007KT 10SM SCT120 21/03 A3050 RMK AO2 T02060034
Pressure 30.50 in
Visibility 10.0 miles
Clouds Scattered Clouds 12000 ft
Heat Index 75 °F
Dew Point 25 °F
Humidity 16%
Rainfall 0.00 in
Snow Depth Not available.
UV 6 out of 12
Pollen 10.40 out of 12
Air Quality Not available.
Flu Activity Not available.
METAR KTEX 292155Z AUTO 16007KT 10SM SCT120 21/03 A3050 RMK AO2 T02060034

10-Day Weather Forecast

×

Almanac

Astronomy

Aug. 29, 2015 Rise Set
Actual Time
Civil Twilight
Nautical Twilight
Astronomical Twilight
Moon
Length of Visible Light
Length of Day
Tomorrow will be .
, % of the Moon is Illuminated

Today's Extremes

State Highs State Lows

Community

WunderPhotos

Upload Photos

1,850,795 photos uploaded!

WunderBlogs® & News

Nearby

Air Quality

  Air Quality AQ Index Pollutant
Not available.

Snow Depth

Station Depth Elevation

Earthquake Activity

City Distance Mag. Time & Date
Minimum magnitude displayed is 2.5.

Coastal Water Temperatures

Place Temperature

Stations

Nearby Weather Stations

Station Location Temp. Windchill Dew Point Humidity Wind Precip. Elev Updated Type